createdAt,value
2018-01-06T00:55:48.676Z,49.10
2018-01-06T00:58:36.656Z,40.00
2018-01-06T01:15:31.022Z,32.90
2018-01-06T01:17:59.824Z,25.50
2018-01-06T01:20:30.123Z,28.80
2018-01-06T01:22:59.760Z,32.03
2018-01-06T01:25:28.504Z,41.30
2018-01-06T01:27:57.431Z,23.00
2018-01-06T01:30:26.320Z,35.77
2018-01-06T01:32:55.489Z,28.60
2018-01-06T01:35:24.278Z,29.20
2018-01-06T01:38:09.476Z,29.17
2018-01-06T01:41:04.807Z,28.40
2018-01-06T01:43:35.352Z,33.57
2018-01-06T01:46:07.596Z,28.97
2018-01-06T01:48:38.315Z,35.23
2018-01-06T01:51:09.113Z,42.73
2018-01-06T01:53:41.584Z,41.40
2018-01-06T01:59:29.735Z,33.53
2018-01-06T02:02:01.386Z,26.47
2018-01-06T02:04:30.630Z,38.13
2018-01-06T02:06:59.297Z,34.37
2018-01-06T02:09:28.811Z,30.57
2018-01-06T02:11:57.327Z,38.97
2018-01-06T02:14:26.169Z,27.90
2018-01-06T02:16:54.756Z,31.30
2018-01-06T02:19:23.257Z,34.30
2018-01-06T02:21:51.799Z,34.07
2018-01-06T02:24:20.525Z,35.07
2018-01-06T02:26:51.630Z,34.10
2018-01-06T02:35:55.431Z,36.67
2018-01-06T02:38:25.810Z,38.03
2018-01-06T02:40:56.451Z,30.30
2018-01-06T02:46:17.515Z,37.57
2018-01-06T02:49:03.069Z,65.80
2018-01-06T02:57:06.302Z,29.30
2018-01-06T02:59:35.119Z,68.23
2018-01-06T03:02:04.884Z,62.57
2018-01-06T03:04:34.308Z,53.10
2018-01-06T03:07:08.404Z,61.20
2018-01-06T03:15:42.060Z,57.20
2018-01-06T03:18:12.004Z,39.27
2018-01-06T03:20:41.425Z,62.97
2018-01-06T03:23:11.370Z,54.43
2018-01-06T03:25:53.163Z,46.57
2018-01-06T03:28:39.000Z,31.93
2018-01-06T03:31:10.328Z,50.63
2018-01-06T03:33:48.515Z,35.30
2018-01-06T03:36:28.522Z,42.83
2018-01-06T03:43:26.343Z,54.73
2018-01-06T03:46:00.765Z,61.37
2018-01-06T03:48:32.452Z,68.47
2018-01-06T03:51:08.216Z,65.73
2018-01-06T03:53:38.814Z,60.20
2018-01-06T03:56:10.265Z,63.23
2018-01-06T03:58:41.679Z,64.10
2018-01-06T04:01:36.951Z,61.07
2018-01-06T04:35:24.019Z,57.20
2018-01-06T04:37:58.479Z,49.97
2018-01-06T04:40:28.304Z,42.03
2018-01-06T04:43:03.045Z,40.30
2018-01-06T04:45:31.462Z,53.63
2018-01-06T04:47:59.831Z,39.73
2018-01-06T04:50:28.570Z,65.30
2018-01-06T04:52:57.235Z,30.57
2018-01-06T04:55:25.503Z,45.50
2018-01-06T04:57:54.726Z,38.40
2018-01-06T05:00:23.619Z,40.30
2018-01-06T05:02:51.860Z,33.80
2018-01-06T05:05:20.151Z,32.97
2018-01-06T05:07:48.461Z,55.57
2018-01-06T05:10:16.797Z,36.10
2018-01-06T05:12:45.081Z,53.87
2018-01-06T05:15:13.312Z,52.10
2018-01-06T05:17:41.591Z,59.80
2018-01-06T05:20:10.667Z,47.63
2018-01-06T05:22:39.041Z,57.10
2018-01-06T05:25:07.307Z,61.77
2018-01-06T05:27:35.634Z,59.73
2018-01-06T05:30:03.924Z,68.20
2018-01-06T05:32:32.406Z,57.67
2018-01-06T05:37:45.438Z,37.17
2018-01-06T05:40:19.924Z,32.13
2018-01-06T05:42:55.341Z,36.33
2018-01-06T05:45:24.264Z,47.33
2018-01-06T05:47:52.552Z,32.07
2018-01-06T05:50:21.545Z,33.57
2018-01-06T05:52:50.602Z,31.93
2018-01-06T05:55:18.908Z,33.90
2018-01-06T05:57:47.950Z,41.10
2018-01-06T06:00:16.405Z,40.53
2018-01-06T06:02:45.380Z,53.63
2018-01-06T06:05:14.484Z,34.67
2018-01-06T06:07:49.243Z,37.93
2018-01-06T06:10:18.952Z,32.93
2018-01-06T06:12:52.256Z,36.87
2018-01-06T06:15:20.646Z,47.00
2018-01-06T06:17:49.037Z,46.43
2018-01-06T06:20:17.373Z,47.77
2018-01-06T06:22:45.615Z,51.03
2018-01-06T06:25:14.796Z,48.17
2018-01-06T06:27:44.062Z,53.87
2018-01-06T06:30:13.769Z,54.87
2018-01-06T06:32:42.107Z,57.43
2018-01-06T06:35:10.507Z,37.10
2018-01-06T06:37:39.019Z,39.37
2018-01-06T06:40:07.610Z,33.27
2018-01-06T06:42:37.005Z,36.47
2018-01-06T06:45:06.388Z,42.77
2018-01-06T06:47:35.012Z,53.60
2018-01-06T06:50:03.735Z,40.40
2018-01-06T06:52:32.845Z,30.70
2018-01-06T06:55:04.656Z,42.83
2018-01-06T06:57:33.173Z,37.40
2018-01-06T07:00:01.929Z,42.13
2018-01-06T07:02:32.076Z,38.77
2018-01-06T07:05:02.372Z,32.90
2018-01-06T07:07:31.002Z,33.67
2018-01-06T07:09:59.871Z,37.17
2018-01-06T07:12:28.699Z,39.80
2018-01-06T07:15:01.484Z,35.13
2018-01-06T07:17:30.327Z,31.80
2018-01-06T07:19:59.842Z,34.50
2018-01-06T07:22:29.485Z,31.63
2018-01-06T07:24:58.556Z,41.60
2018-01-06T07:27:27.396Z,33.07
2018-01-06T07:30:00.295Z,34.83
2018-01-06T07:32:29.803Z,36.40
2018-01-06T07:34:59.613Z,32.77
2018-01-06T07:40:06.480Z,65.50
2018-01-06T07:42:35.114Z,44.10
2018-01-06T07:45:03.389Z,45.93
2018-01-06T07:47:31.820Z,38.00
2018-01-06T07:50:00.274Z,56.50
2018-01-06T07:52:29.729Z,52.90
2018-01-06T07:54:58.048Z,46.10
2018-01-06T07:57:26.339Z,32.20
2018-01-06T07:59:54.846Z,28.80
2018-01-06T08:02:23.186Z,30.33
2018-01-06T08:04:51.561Z,33.97
2018-01-06T08:07:19.908Z,37.13
2018-01-06T08:09:48.254Z,61.47
2018-01-06T08:12:17.287Z,42.00
2018-01-06T08:14:45.838Z,35.37
2018-01-06T08:17:14.251Z,45.97
2018-01-06T08:19:42.585Z,42.90
2018-01-06T08:22:10.870Z,55.70
2018-01-06T08:24:39.673Z,62.10
2018-01-06T08:27:08.262Z,52.60
2018-01-06T08:29:36.909Z,33.87
2018-01-06T08:32:05.432Z,42.10
2018-01-06T08:34:33.667Z,49.20
2018-01-06T08:37:01.959Z,53.20
2018-01-06T08:39:31.076Z,47.93
2018-01-06T08:41:59.425Z,50.97
2018-01-06T08:44:27.691Z,53.53
2018-01-06T08:46:56.150Z,35.17
2018-01-06T08:49:24.442Z,39.40
2018-01-06T08:51:52.798Z,34.40
2018-01-06T08:54:21.230Z,31.00
2018-01-06T08:56:49.580Z,32.73
2018-01-06T08:59:17.906Z,29.97
2018-01-06T09:01:46.252Z,43.90
2018-01-06T09:04:14.535Z,29.23
2018-01-06T09:06:51.907Z,27.60
2018-01-06T09:09:25.437Z,21.60
2018-01-06T09:11:54.331Z,22.07
2018-01-06T09:14:23.934Z,17.77
2018-01-06T09:16:52.791Z,17.27
2018-01-06T09:19:21.044Z,21.77
2018-01-06T09:21:49.292Z,20.47
2018-01-06T09:24:17.802Z,19.60
2018-01-06T09:26:46.081Z,23.77
2018-01-06T09:29:16.911Z,27.57
2018-01-06T09:31:46.805Z,29.00
2018-01-06T09:34:18.424Z,25.80
2018-01-06T09:36:47.842Z,27.53
2018-01-06T09:39:17.144Z,28.67
2018-01-06T09:41:49.781Z,24.30
2018-01-06T09:46:54.141Z,23.67
2018-01-06T09:49:22.461Z,23.10
2018-01-06T09:51:50.814Z,21.33
2018-01-06T09:54:19.143Z,23.93
2018-01-06T09:56:49.577Z,16.20
2018-01-06T09:59:19.119Z,16.63
2018-01-06T10:01:47.342Z,12.97
2018-01-06T10:04:15.723Z,15.87
2018-01-06T10:06:44.015Z,16.90
2018-01-06T10:09:12.286Z,22.50
2018-01-06T10:11:41.361Z,17.13
2018-01-06T10:14:10.952Z,20.20
2018-01-06T10:16:41.650Z,16.03
2018-01-06T10:19:10.046Z,13.93
2018-01-06T10:21:38.397Z,13.93
2018-01-06T10:24:06.761Z,11.63
2018-01-06T10:26:35.077Z,12.93
2018-01-06T10:29:03.380Z,13.33
2018-01-06T10:31:31.797Z,13.37
2018-01-06T10:34:00.885Z,13.30
2018-01-06T10:36:29.192Z,15.30
2018-01-06T10:39:07.383Z,11.37
2018-01-06T10:41:36.363Z,18.33
2018-01-06T10:44:04.803Z,61.73
2018-01-06T10:46:33.316Z,19.33
2018-01-06T10:49:04.733Z,16.77
2018-01-06T10:56:30.912Z,16.57
2018-01-06T10:58:59.368Z,14.60
2018-01-06T11:01:34.126Z,19.33
2018-01-06T11:04:02.594Z,16.30
2018-01-06T11:06:30.986Z,16.13
2018-01-06T11:08:59.246Z,13.80
2018-01-06T11:11:34.224Z,13.47
2018-01-06T11:14:15.630Z,12.97
2018-01-06T11:16:43.942Z,12.80
2018-01-06T11:19:12.406Z,13.27
2018-01-06T11:21:40.708Z,12.43
2018-01-06T11:24:09.100Z,10.50
2018-01-06T11:26:39.019Z,14.43
2018-01-06T11:29:20.065Z,17.80
2018-01-06T11:31:48.918Z,11.30
2018-01-06T11:34:17.474Z,13.80
2018-01-06T11:36:45.756Z,18.87
2018-01-06T11:39:14.031Z,15.10
2018-01-06T11:41:43.113Z,14.00
2018-01-06T11:44:12.458Z,10.43
2018-01-06T11:46:40.717Z,20.73
2018-01-06T11:49:13.144Z,19.13
2018-01-06T11:51:44.349Z,15.07
2018-01-06T11:54:31.610Z,14.23
2018-01-06T11:57:00.387Z,18.20
2018-01-06T11:59:29.176Z,16.60
2018-01-06T12:01:58.260Z,14.80
2018-01-06T12:04:27.093Z,17.80
2018-01-06T12:06:56.387Z,12.50
2018-01-06T12:09:25.463Z,17.40
2018-01-06T12:11:53.739Z,20.93
2018-01-06T12:14:22.181Z,17.90
2018-01-06T12:16:50.471Z,18.43
2018-01-06T12:19:18.791Z,19.77
2018-01-06T12:21:47.402Z,14.93
2018-01-06T12:24:15.975Z,20.53
2018-01-06T12:26:56.749Z,18.97
2018-01-06T12:32:26.507Z,17.00
2018-01-06T12:38:09.273Z,19.87
2018-01-06T12:40:38.324Z,21.47
2018-01-06T12:43:06.669Z,17.27
2018-01-06T12:45:35.445Z,21.73
2018-01-06T12:48:04.689Z,21.70
2018-01-06T12:50:33.125Z,23.33
2018-01-06T12:53:02.219Z,23.23
2018-01-06T12:55:30.607Z,28.10
2018-01-06T12:57:58.863Z,24.33
2018-01-06T13:00:27.283Z,16.47
2018-01-06T13:02:55.550Z,21.40
2018-01-06T13:05:24.562Z,21.00
2018-01-06T13:07:52.886Z,23.97
2018-01-06T13:10:22.590Z,22.03
2018-01-06T13:12:50.844Z,18.80
2018-01-06T13:15:19.181Z,30.90
2018-01-06T13:17:47.475Z,27.87
2018-01-06T13:20:16.209Z,16.80
2018-01-06T13:22:44.792Z,20.93
2018-01-06T13:25:13.076Z,17.93
2018-01-06T13:27:41.363Z,16.80
2018-01-06T13:30:11.210Z,13.27
2018-01-06T13:32:39.483Z,16.20
2018-01-06T13:35:07.756Z,15.33
2018-01-06T13:37:36.124Z,23.10
2018-01-06T13:40:04.686Z,23.97
2018-01-06T13:42:33.769Z,22.00
2018-01-06T13:45:02.106Z,28.13
2018-01-06T13:47:30.410Z,23.00
2018-01-06T13:49:58.739Z,21.00
2018-01-06T13:52:27.057Z,18.27
2018-01-06T13:54:55.360Z,18.10
2018-01-06T13:57:24.376Z,24.27
2018-01-06T13:59:52.723Z,19.90
2018-01-06T14:02:21.747Z,20.73
2018-01-06T14:04:50.124Z,23.23
2018-01-06T14:07:18.523Z,22.73
2018-01-06T14:09:46.928Z,23.57
2018-01-06T14:12:15.486Z,24.93
2018-01-06T14:14:44.048Z,19.43
2018-01-06T14:17:12.322Z,19.10
2018-01-06T14:19:40.927Z,26.10
2018-01-06T14:22:09.322Z,29.73
2018-01-06T14:24:37.754Z,26.30
2018-01-06T14:27:06.042Z,18.53
2018-01-06T14:29:34.802Z,27.57
2018-01-06T14:32:03.142Z,14.87
2018-01-06T14:34:31.510Z,24.47
2018-01-06T14:37:02.907Z,29.47
2018-01-06T14:39:31.234Z,29.70
2018-01-06T14:41:59.612Z,25.97
2018-01-06T14:44:28.069Z,32.40
2018-01-06T14:46:56.340Z,32.30
2018-01-06T14:49:24.665Z,31.93
2018-01-06T14:51:55.485Z,38.43
2018-01-06T14:54:23.861Z,36.20
2018-01-06T14:56:52.176Z,36.87
2018-01-06T14:59:20.575Z,31.77
2018-01-06T15:01:49.020Z,33.70
2018-01-06T15:04:17.283Z,40.50
2018-01-06T15:06:45.723Z,46.17
2018-01-06T15:09:14.016Z,38.80
2018-01-06T15:11:42.390Z,44.23
2018-01-06T15:14:10.863Z,39.63
2018-01-06T15:16:39.150Z,34.00
2018-01-06T15:19:07.437Z,36.10
2018-01-06T15:21:36.154Z,39.10
2018-01-06T15:24:05.217Z,50.13
2018-01-06T15:26:33.548Z,47.40
2018-01-06T15:29:02.676Z,36.30
2018-01-06T15:31:31.107Z,30.30
2018-01-06T15:33:59.690Z,30.90
2018-01-06T15:36:28.297Z,49.00
2018-01-06T15:38:57.534Z,59.40
2018-01-06T15:41:25.843Z,62.60
2018-01-06T15:43:54.386Z,40.83
2018-01-06T15:46:22.802Z,40.37
2018-01-06T15:48:52.000Z,60.87
2018-01-06T15:51:20.388Z,19.83
2018-01-06T15:53:48.634Z,38.17
2018-01-06T15:56:16.998Z,21.03
2018-01-06T15:58:45.412Z,27.67
2018-01-06T16:01:13.745Z,32.83
2018-01-06T16:03:42.027Z,28.17
2018-01-06T16:06:10.452Z,27.33
2018-01-06T16:08:38.752Z,37.27
2018-01-06T16:11:07.110Z,42.90
2018-01-06T16:13:35.504Z,45.73
2018-01-06T16:16:05.700Z,37.17
2018-01-06T16:18:34.108Z,39.70
2018-01-06T16:21:02.361Z,42.97
2018-01-06T16:23:30.695Z,39.00
2018-01-06T16:25:59.181Z,47.37
2018-01-06T16:28:27.683Z,32.20
2018-01-06T16:30:55.960Z,39.37
2018-01-06T16:33:25.061Z,40.20
2018-01-06T16:35:53.555Z,41.63
2018-01-06T16:38:22.667Z,41.40
2018-01-06T16:40:51.764Z,23.80
2018-01-06T16:43:20.119Z,40.30
2018-01-06T16:45:48.380Z,33.60
2018-01-06T16:48:16.706Z,35.67
2018-01-06T16:50:45.050Z,35.10
2018-01-06T16:53:13.476Z,40.30
2018-01-06T16:55:41.897Z,21.03
2018-01-06T16:58:10.957Z,51.60
2018-01-06T17:00:39.280Z,45.30
2018-01-06T17:03:07.703Z,40.60
2018-01-06T17:05:36.242Z,32.67
2018-01-06T17:08:04.564Z,37.33
2018-01-06T17:10:32.950Z,49.70
2018-01-06T17:13:01.282Z,48.37
2018-01-06T17:15:29.578Z,53.07
2018-01-06T17:17:58.746Z,50.90
2018-01-06T17:20:27.783Z,53.20
2018-01-06T17:22:56.122Z,61.20
2018-01-06T17:25:24.437Z,67.60
2018-01-06T17:27:52.958Z,63.77
2018-01-06T17:30:21.245Z,66.60
2018-01-06T17:32:49.624Z,50.80
2018-01-06T17:35:18.844Z,58.50
2018-01-06T17:37:47.961Z,60.37
2018-01-06T17:40:16.334Z,59.40
2018-01-06T17:42:44.882Z,62.57
2018-01-06T17:45:14.082Z,75.33
2018-01-06T17:47:43.136Z,79.23
2018-01-06T17:50:11.532Z,86.33
2018-01-06T17:52:39.887Z,76.00
2018-01-06T17:55:08.993Z,32.73
2018-01-06T17:57:37.489Z,36.63
2018-01-06T18:00:06.574Z,76.03
2018-01-06T18:02:34.901Z,83.37
2018-01-06T18:05:04.174Z,84.57
2018-01-06T18:07:32.726Z,90.43
2018-01-06T18:10:01.021Z,98.80
2018-01-06T18:12:29.418Z,86.10
2018-01-06T18:14:58.573Z,93.60
2018-01-06T18:17:26.884Z,78.67
2018-01-06T18:19:55.399Z,93.77
2018-01-06T18:22:23.730Z,84.87
2018-01-06T18:24:52.840Z,87.33
2018-01-06T18:27:21.157Z,86.53
2018-01-06T18:29:49.743Z,102.63
2018-01-06T18:32:18.262Z,81.13
2018-01-06T18:34:46.749Z,80.70
2018-01-06T18:37:15.294Z,80.13
2018-01-06T18:39:43.619Z,74.83
2018-01-06T18:42:11.907Z,77.47
2018-01-06T18:44:40.330Z,56.00
2018-01-06T18:47:08.775Z,81.23
2018-01-06T18:49:37.984Z,83.60
2018-01-06T18:52:06.461Z,89.03
2018-01-06T18:54:35.640Z,80.33
2018-01-06T18:57:04.810Z,39.10
2018-01-06T18:59:33.303Z,68.67
2018-01-06T19:02:02.588Z,81.70
2018-01-06T19:04:30.971Z,90.27
2018-01-06T19:06:59.471Z,81.70
2018-01-06T19:09:28.654Z,74.67
2018-01-06T19:11:57.759Z,72.73
2018-01-06T19:14:26.964Z,78.73
2018-01-06T19:16:55.285Z,74.10
2018-01-06T19:19:23.665Z,81.10
2018-01-06T19:21:52.366Z,76.37
2018-01-06T19:24:20.754Z,84.77
2018-01-06T19:26:50.002Z,74.63
2018-01-06T19:29:18.364Z,80.97
2018-01-06T19:31:47.418Z,81.83
2018-01-06T19:34:18.990Z,61.83
2018-01-06T19:36:47.356Z,68.67
2018-01-06T19:39:15.665Z,53.00
2018-01-06T19:41:44.034Z,52.83
2018-01-06T19:44:12.423Z,59.07
2018-01-06T19:46:41.844Z,69.03
2018-01-06T19:49:11.054Z,79.40
2018-01-06T19:51:39.607Z,67.83
2018-01-06T19:54:08.875Z,74.40
2018-01-06T19:56:37.350Z,74.67
2018-01-06T19:59:05.604Z,53.23
2018-01-06T20:01:33.988Z,46.30
2018-01-06T20:04:02.407Z,74.07
2018-01-06T20:06:31.800Z,84.47
2018-01-06T20:09:00.794Z,90.67
2018-01-06T20:11:29.181Z,84.93
2018-01-06T20:13:58.407Z,104.60
2018-01-06T20:16:27.590Z,106.13
2018-01-06T20:18:56.657Z,107.87
2018-01-06T20:21:24.957Z,117.53
2018-01-06T20:23:54.188Z,122.23
2018-01-06T20:26:22.734Z,93.47
2018-01-06T20:28:51.798Z,116.40
2018-01-06T20:31:20.379Z,106.10
2018-01-06T20:33:48.882Z,110.30
2018-01-06T20:36:17.223Z,104.33
2018-01-06T20:38:45.872Z,107.10
2018-01-06T20:41:14.306Z,100.67
2018-01-06T20:43:42.570Z,91.57
2018-01-06T20:46:11.798Z,93.40
2018-01-06T20:48:40.295Z,101.60
2018-01-06T20:51:09.458Z,100.53
2018-01-06T20:53:37.833Z,200.07
2018-01-06T20:56:06.341Z,228.10
2018-01-06T20:58:34.664Z,170.03
2018-01-06T21:01:02.978Z,272.83
2018-01-06T21:03:31.454Z,281.00
2018-01-06T21:05:59.791Z,317.63
2018-01-06T21:08:28.987Z,151.67
2018-01-06T21:10:57.431Z,116.30
2018-01-06T21:13:26.495Z,240.40
2018-01-06T21:15:54.844Z,164.97
2018-01-06T21:18:23.250Z,167.87
2018-01-06T21:20:52.376Z,159.93
2018-01-06T21:23:21.585Z,150.30
2018-01-06T21:25:50.668Z,100.73
2018-01-06T21:28:19.974Z,65.87
2018-01-06T21:30:49.263Z,62.40
2018-01-06T21:33:17.647Z,77.50
2018-01-06T21:35:46.729Z,126.67
2018-01-06T21:38:15.915Z,127.07
2018-01-06T21:40:44.424Z,134.20
2018-01-06T21:43:13.576Z,146.30
2018-01-06T21:45:42.086Z,178.33
2018-01-06T21:50:39.405Z,125.90
2018-01-06T21:53:07.904Z,145.93
2018-01-06T21:55:36.331Z,130.73
2018-01-06T21:58:05.415Z,153.27
2018-01-06T22:00:34.023Z,117.60
2018-01-06T22:03:02.347Z,140.70
2018-01-06T22:05:30.807Z,123.10
2018-01-06T22:07:59.240Z,144.47
2018-01-06T22:10:28.286Z,144.67
2018-01-06T22:12:56.762Z,153.80
2018-01-06T22:15:25.151Z,162.67
2018-01-06T22:17:53.644Z,126.90
2018-01-06T22:20:21.911Z,84.47
2018-01-06T22:22:50.331Z,106.23
2018-01-06T22:25:18.772Z,116.90
2018-01-06T22:27:47.053Z,128.07
2018-01-06T22:30:15.338Z,68.43
2018-01-06T22:32:44.635Z,104.00
2018-01-06T22:35:13.032Z,105.73
2018-01-06T22:37:41.426Z,164.70
2018-01-06T22:40:10.585Z,148.53
2018-01-06T22:42:38.939Z,132.53
2018-01-06T22:45:08.044Z,117.23
2018-01-06T22:47:36.456Z,99.07
2018-01-06T22:50:05.508Z,111.70
2018-01-06T22:52:33.860Z,104.00
2018-01-06T22:55:03.001Z,115.40
2018-01-06T22:57:31.276Z,143.73
2018-01-06T22:59:59.574Z,107.83
2018-01-06T23:02:28.030Z,106.37
2018-01-06T23:04:56.347Z,116.03
2018-01-06T23:07:25.401Z,157.23
2018-01-06T23:09:53.850Z,134.73
2018-01-06T23:12:22.169Z,123.03
2018-01-06T23:14:50.484Z,120.73
2018-01-06T23:17:19.655Z,119.73
2018-01-06T23:19:47.936Z,117.37
2018-01-06T23:22:16.389Z,128.93
2018-01-06T23:24:44.838Z,135.00
2018-01-06T23:27:13.417Z,115.73
2018-01-06T23:29:41.726Z,122.10
2018-01-06T23:32:10.453Z,84.97
2018-01-06T23:34:39.502Z,89.67
2018-01-06T23:37:07.795Z,95.63
2018-01-06T23:39:36.215Z,100.73
2018-01-06T23:42:05.363Z,94.17
2018-01-06T23:44:33.726Z,92.20
2018-01-06T23:47:02.112Z,69.87
2018-01-06T23:49:31.230Z,73.73
2018-01-06T23:51:59.652Z,72.50
2018-01-06T23:54:29.184Z,67.50
2018-01-06T23:56:57.564Z,65.70
2018-01-06T23:59:26.663Z,65.90
